createdAt,value
2022-12-27T00:01:48.819Z,1.40
2022-12-27T00:04:17.340Z,1.70
2022-12-27T00:06:45.774Z,1.40
2022-12-27T00:09:15.343Z,1.97
2022-12-27T00:11:43.926Z,1.70
2022-12-27T00:14:12.771Z,1.80
2022-12-27T00:16:41.752Z,1.10
2022-12-27T00:19:09.971Z,1.37
2022-12-27T00:21:38.755Z,1.90
2022-12-27T00:24:07.464Z,1.67
2022-12-27T00:26:38.220Z,1.43
2022-12-27T00:29:06.562Z,1.10
2022-12-27T00:31:35.759Z,1.33
2022-12-27T00:34:07.271Z,2.17
2022-12-27T00:36:36.026Z,1.67
2022-12-27T00:39:05.428Z,1.33
2022-12-27T00:41:34.133Z,1.43
2022-12-27T00:44:03.809Z,1.40
2022-12-27T00:46:32.725Z,2.10
2022-12-27T00:49:00.764Z,1.90
2022-12-27T00:51:29.244Z,1.73
2022-12-27T00:53:57.664Z,1.70
2022-12-27T00:56:28.507Z,1.70
2022-12-27T00:58:58.206Z,1.73
2022-12-27T01:01:30.440Z,2.20
2022-12-27T01:03:59.433Z,1.80
2022-12-27T01:06:29.953Z,1.77
2022-12-27T01:08:58.571Z,1.70
2022-12-27T01:11:28.906Z,2.03
2022-12-27T01:13:57.978Z,1.50
2022-12-27T01:16:29.362Z,1.80
2022-12-27T01:18:58.116Z,2.20
2022-12-27T01:21:27.740Z,1.87
2022-12-27T01:23:56.407Z,1.77
2022-12-27T01:26:25.297Z,2.23
2022-12-27T01:28:54.704Z,2.13
2022-12-27T01:31:26.272Z,1.97
2022-12-27T01:33:58.025Z,2.00
2022-12-27T01:36:27.549Z,2.47
2022-12-27T01:38:55.948Z,2.20
2022-12-27T01:41:43.994Z,2.00
2022-12-27T01:44:54.505Z,2.33
2022-12-27T01:47:30.746Z,2.00
2022-12-27T01:50:11.920Z,1.80
2022-12-27T01:52:47.595Z,1.60
2022-12-27T01:55:23.399Z,2.00
2022-12-27T01:57:54.847Z,1.80
2022-12-27T02:00:23.301Z,1.70
2022-12-27T02:02:52.459Z,2.13
2022-12-27T02:05:25.592Z,1.90
2022-12-27T02:08:05.643Z,2.17
2022-12-27T02:10:35.240Z,2.27
2022-12-27T02:13:04.614Z,1.87
2022-12-27T02:15:33.527Z,1.63
2022-12-27T02:18:02.044Z,2.97
2022-12-27T02:20:40.541Z,1.80
2022-12-27T02:24:04.399Z,1.63
2022-12-27T02:26:46.382Z,1.73
2022-12-27T02:29:53.441Z,1.60
2022-12-27T02:32:30.824Z,2.87
2022-12-27T02:35:08.818Z,3.00
2022-12-27T02:37:42.614Z,1.63
2022-12-27T02:40:30.728Z,1.70
2022-12-27T02:43:16.745Z,2.10
2022-12-27T02:46:10.383Z,1.70
2022-12-27T02:48:57.420Z,2.60
2022-12-27T02:51:56.821Z,2.00
2022-12-27T02:54:39.448Z,2.67
2022-12-27T02:57:18.699Z,1.63
2022-12-27T03:00:20.861Z,2.03
2022-12-27T03:03:16.840Z,1.63
2022-12-27T03:06:25.092Z,1.63
2022-12-27T03:09:03.295Z,1.83
2022-12-27T03:11:57.026Z,1.43
2022-12-27T03:14:47.792Z,1.43
2022-12-27T03:17:23.324Z,1.67
2022-12-27T03:20:14.649Z,1.83
2022-12-27T03:23:05.100Z,1.70
2022-12-27T03:25:36.192Z,2.17
2022-12-27T03:28:25.810Z,1.70
2022-12-27T03:31:18.136Z,1.90
2022-12-27T03:33:48.778Z,1.40
2022-12-27T03:36:39.324Z,1.37
2022-12-27T03:39:15.370Z,1.73
2022-12-27T03:42:05.905Z,1.20
2022-12-27T03:44:34.373Z,2.10
2022-12-27T03:47:07.300Z,1.70
2022-12-27T03:49:40.875Z,1.37
2022-12-27T03:52:12.806Z,1.93
2022-12-27T03:54:45.449Z,1.20
2022-12-27T03:57:16.403Z,1.90
2022-12-27T03:59:44.924Z,1.70
2022-12-27T04:02:13.731Z,1.83
2022-12-27T04:04:41.874Z,2.27
2022-12-27T04:07:10.429Z,1.47
2022-12-27T04:09:56.240Z,1.40
2022-12-27T04:12:43.251Z,2.27
2022-12-27T04:15:29.356Z,2.33
2022-12-27T04:18:14.839Z,1.40
2022-12-27T04:21:00.788Z,1.50
2022-12-27T04:23:46.479Z,2.00
2022-12-27T04:26:32.268Z,1.50
2022-12-27T04:29:19.790Z,1.63
2022-12-27T04:32:05.800Z,2.47
2022-12-27T04:34:43.595Z,1.27
2022-12-27T04:37:13.883Z,1.40
2022-12-27T04:39:42.253Z,1.70
2022-12-27T04:42:29.240Z,1.43
2022-12-27T04:45:15.971Z,1.50
2022-12-27T04:48:02.059Z,1.83
2022-12-27T04:50:49.341Z,1.40
2022-12-27T04:53:37.671Z,1.30
2022-12-27T04:56:06.759Z,1.50
2022-12-27T04:58:34.815Z,1.30
2022-12-27T05:01:24.072Z,1.50
2022-12-27T05:03:54.388Z,1.60
2022-12-27T05:06:22.251Z,1.50
2022-12-27T05:09:08.082Z,1.43
2022-12-27T05:11:53.158Z,1.60
2022-12-27T05:14:21.611Z,1.60
2022-12-27T05:16:50.842Z,1.10
2022-12-27T05:19:18.752Z,1.63
2022-12-27T05:22:07.250Z,1.13
2022-12-27T05:24:52.605Z,1.60
2022-12-27T05:27:21.012Z,1.33
2022-12-27T05:29:48.852Z,1.63
2022-12-27T05:32:18.147Z,1.00
2022-12-27T05:34:46.643Z,1.40
2022-12-27T05:37:14.491Z,1.60
2022-12-27T05:39:42.802Z,2.40
2022-12-27T05:42:11.126Z,1.10
2022-12-27T05:44:38.890Z,1.50
2022-12-27T05:47:06.790Z,2.50
2022-12-27T05:49:37.782Z,2.07
2022-12-27T05:52:06.125Z,1.17
2022-12-27T05:54:34.528Z,1.20
2022-12-27T05:57:02.377Z,1.10
2022-12-27T05:59:30.153Z,1.20
2022-12-27T06:01:58.148Z,1.20
2022-12-27T06:04:26.633Z,1.70
2022-12-27T06:06:55.860Z,1.10
2022-12-27T06:09:23.857Z,1.40
2022-12-27T06:11:52.319Z,1.40
2022-12-27T06:14:20.285Z,1.13
2022-12-27T06:16:48.280Z,0.90
2022-12-27T06:19:16.803Z,1.20
2022-12-27T06:21:44.682Z,1.20
2022-12-27T06:24:14.410Z,1.20
2022-12-27T06:26:43.306Z,0.97
2022-12-27T06:29:13.471Z,1.33
2022-12-27T06:31:41.992Z,1.20
2022-12-27T06:34:11.766Z,1.17
2022-12-27T06:36:40.129Z,1.40
2022-12-27T06:39:08.014Z,1.00
2022-12-27T06:41:37.581Z,1.27
2022-12-27T06:44:06.357Z,1.57
2022-12-27T06:46:34.307Z,1.30
2022-12-27T06:49:02.334Z,1.50
2022-12-27T06:51:30.612Z,1.53
2022-12-27T06:53:58.475Z,1.00
2022-12-27T06:56:26.808Z,1.40
2022-12-27T06:58:55.964Z,1.67
2022-12-27T07:01:26.105Z,1.20
2022-12-27T07:03:55.745Z,1.70
2022-12-27T07:06:25.015Z,1.20
2022-12-27T07:08:53.756Z,1.10
2022-12-27T07:11:23.055Z,1.53
2022-12-27T07:13:52.286Z,1.60
2022-12-27T07:16:23.863Z,1.30
2022-12-27T07:18:52.524Z,1.60
2022-12-27T07:21:22.932Z,1.37
2022-12-27T07:23:51.762Z,1.10
2022-12-27T07:26:21.910Z,1.07
2022-12-27T07:28:50.134Z,1.53
2022-12-27T07:31:20.735Z,1.37
2022-12-27T07:33:50.070Z,0.90
2022-12-27T07:36:21.598Z,1.43
2022-12-27T07:38:49.926Z,1.53
2022-12-27T07:41:18.603Z,1.20
2022-12-27T07:43:47.258Z,1.20
2022-12-27T07:46:16.710Z,1.20
2022-12-27T07:48:44.942Z,1.87
2022-12-27T07:51:15.769Z,1.60
2022-12-27T07:53:44.407Z,1.47
2022-12-27T07:56:15.289Z,1.70
2022-12-27T07:58:48.567Z,1.67
2022-12-27T08:01:19.064Z,2.47
2022-12-27T08:03:48.020Z,1.90
2022-12-27T08:06:25.907Z,1.80
2022-12-27T08:08:55.215Z,1.30
2022-12-27T08:11:23.779Z,1.60
2022-12-27T08:13:52.063Z,1.60
2022-12-27T08:16:23.198Z,2.03
2022-12-27T08:18:53.459Z,1.97
2022-12-27T08:21:21.736Z,1.60
2022-12-27T08:23:51.138Z,1.83
2022-12-27T08:26:19.650Z,1.47
2022-12-27T08:28:47.855Z,2.50
2022-12-27T08:31:16.123Z,1.50
2022-12-27T08:33:44.587Z,1.60
2022-12-27T08:39:03.884Z,2.17
2022-12-27T08:41:32.317Z,2.00
2022-12-27T08:44:00.266Z,1.90
2022-12-27T08:46:28.603Z,1.90
2022-12-27T08:48:56.791Z,1.93
2022-12-27T08:51:34.367Z,2.00
2022-12-27T08:54:10.292Z,2.00
2022-12-27T08:56:39.073Z,2.00
2022-12-27T08:59:07.628Z,2.20
2022-12-27T09:01:36.382Z,2.17
2022-12-27T09:04:04.761Z,2.43
2022-12-27T09:06:32.945Z,2.87
2022-12-27T09:09:01.822Z,2.20
2022-12-27T09:11:34.392Z,2.93
2022-12-27T09:14:05.258Z,3.13
2022-12-27T09:16:35.816Z,2.17
2022-12-27T09:19:05.549Z,2.37
2022-12-27T09:21:35.136Z,2.27
2022-12-27T09:24:03.898Z,2.67
2022-12-27T09:26:33.902Z,1.93
2022-12-27T09:29:02.301Z,1.63
2022-12-27T09:31:30.796Z,1.83
2022-12-27T09:33:59.444Z,2.23
2022-12-27T09:36:29.780Z,2.03
2022-12-27T09:38:59.689Z,2.10
2022-12-27T09:44:37.960Z,2.20
2022-12-27T09:47:11.435Z,2.07
2022-12-27T09:49:43.132Z,1.60
2022-12-27T09:52:17.295Z,1.90
2022-12-27T09:55:04.171Z,1.97
2022-12-27T09:57:47.314Z,2.30
2022-12-27T10:00:20.008Z,2.30
2022-12-27T10:03:06.409Z,1.60
2022-12-27T10:05:38.499Z,2.13
2022-12-27T10:08:24.155Z,2.30
2022-12-27T10:10:59.218Z,1.70
2022-12-27T10:13:43.553Z,1.70
2022-12-27T10:16:22.088Z,2.20
2022-12-27T10:19:04.740Z,2.20
2022-12-27T10:21:38.883Z,1.70
2022-12-27T10:24:17.415Z,1.70
2022-12-27T10:26:45.946Z,1.90
2022-12-27T10:29:22.742Z,2.50
2022-12-27T10:31:51.635Z,2.13
2022-12-27T10:34:24.203Z,2.30
2022-12-27T10:36:53.933Z,2.53
2022-12-27T10:39:27.054Z,1.60
2022-12-27T10:42:05.037Z,2.37
2022-12-27T10:44:34.379Z,1.83
2022-12-27T10:47:02.967Z,2.47
2022-12-27T10:49:32.925Z,2.60
2022-12-27T10:52:09.750Z,2.30
2022-12-27T10:54:51.771Z,2.60
2022-12-27T10:57:27.485Z,1.83
2022-12-27T11:00:19.401Z,2.20
2022-12-27T11:02:51.712Z,2.60
2022-12-27T11:05:25.199Z,1.93
2022-12-27T11:07:53.474Z,3.03
2022-12-27T11:10:23.790Z,1.83
2022-12-27T11:13:19.305Z,2.00
2022-12-27T11:15:59.011Z,1.73
2022-12-27T11:18:28.116Z,1.87
2022-12-27T11:20:58.486Z,2.43
2022-12-27T11:23:32.928Z,1.70
2022-12-27T11:26:03.513Z,2.50
2022-12-27T11:28:38.093Z,1.80
2022-12-27T11:31:09.521Z,3.57
2022-12-27T11:33:41.552Z,1.80
2022-12-27T11:36:12.391Z,2.60
2022-12-27T11:38:44.976Z,1.60
2022-12-27T11:41:24.567Z,2.13
2022-12-27T11:44:00.789Z,1.97
2022-12-27T11:46:37.361Z,2.20
2022-12-27T11:49:13.371Z,1.83
2022-12-27T11:52:01.456Z,1.30
2022-12-27T11:54:55.667Z,1.70
2022-12-27T11:57:37.861Z,1.50
2022-12-27T12:00:16.746Z,1.73
2022-12-27T12:03:34.276Z,1.80
2022-12-27T12:06:14.500Z,2.47
2022-12-27T12:09:21.704Z,2.07
2022-12-27T12:12:06.265Z,3.40
2022-12-27T12:14:53.014Z,2.23
2022-12-27T12:17:36.280Z,2.93
2022-12-27T12:20:39.783Z,2.17
2022-12-27T12:23:14.543Z,2.17
2022-12-27T12:26:07.329Z,1.60
2022-12-27T12:29:18.909Z,1.53
2022-12-27T12:32:03.376Z,1.53
2022-12-27T12:35:00.744Z,1.43
2022-12-27T12:37:44.983Z,1.80
2022-12-27T12:40:32.825Z,1.83
2022-12-27T12:43:15.429Z,1.40
2022-12-27T12:46:01.368Z,2.90
2022-12-27T12:48:58.879Z,2.03
2022-12-27T12:51:42.620Z,2.00
2022-12-27T12:54:31.303Z,2.60
2022-12-27T12:57:21.966Z,2.40
2022-12-27T13:00:08.505Z,1.93
2022-12-27T13:02:59.964Z,2.53
2022-12-27T13:05:40.253Z,2.83
2022-12-27T13:08:18.291Z,2.57
2022-12-27T13:11:05.382Z,2.23
2022-12-27T13:13:46.755Z,2.80
2022-12-27T13:16:25.835Z,4.07
2022-12-27T13:19:06.923Z,2.00
2022-12-27T13:21:54.897Z,1.90
2022-12-27T13:24:32.495Z,2.50
2022-12-27T13:27:15.206Z,2.33
2022-12-27T13:30:01.685Z,2.30
2022-12-27T13:32:43.542Z,2.40
2022-12-27T13:35:29.494Z,2.30
2022-12-27T13:38:13.772Z,2.10
2022-12-27T13:41:06.474Z,2.40
2022-12-27T13:43:51.071Z,2.33
2022-12-27T13:46:42.435Z,1.53
2022-12-27T13:49:23.657Z,2.03
2022-12-27T13:51:53.927Z,1.70
2022-12-27T13:54:46.208Z,1.80
2022-12-27T13:57:26.393Z,1.33
2022-12-27T14:00:10.112Z,2.27
2022-12-27T14:03:07.348Z,1.80
2022-12-27T14:06:17.630Z,2.27
2022-12-27T14:09:05.775Z,2.67
2022-12-27T14:11:46.676Z,1.63
2022-12-27T14:14:19.542Z,2.17
2022-12-27T14:17:09.792Z,2.37
2022-12-27T14:19:54.585Z,2.60
2022-12-27T14:22:38.773Z,2.53
2022-12-27T14:25:52.142Z,1.90
2022-12-27T14:29:07.328Z,2.30
2022-12-27T14:32:17.065Z,2.20
2022-12-27T14:35:26.594Z,2.10
2022-12-27T14:38:36.836Z,1.90
2022-12-27T14:41:38.581Z,2.20
2022-12-27T14:44:55.487Z,2.23
2022-12-27T14:48:01.904Z,2.00
2022-12-27T14:51:08.182Z,3.10
2022-12-27T14:54:06.615Z,2.27
2022-12-27T14:56:45.908Z,3.30
2022-12-27T14:59:27.654Z,2.00
2022-12-27T15:02:09.582Z,2.50
2022-12-27T15:04:59.484Z,2.40
2022-12-27T15:07:43.468Z,3.07
2022-12-27T15:10:25.987Z,3.23
2022-12-27T15:13:02.978Z,1.90
2022-12-27T15:15:47.068Z,3.10
2022-12-27T15:18:34.375Z,2.33
2022-12-27T15:21:25.504Z,2.27
2022-12-27T15:23:55.579Z,2.43
2022-12-27T15:26:32.836Z,3.47
2022-12-27T15:29:17.807Z,3.40
2022-12-27T15:31:57.359Z,3.27
2022-12-27T15:34:37.112Z,4.10
2022-12-27T15:37:06.749Z,3.60
2022-12-27T15:39:55.601Z,2.73
2022-12-27T15:42:49.005Z,4.10
2022-12-27T15:45:31.580Z,4.07
2022-12-27T15:48:22.898Z,3.47
2022-12-27T15:51:00.661Z,3.00
2022-12-27T15:53:46.627Z,2.87
2022-12-27T15:56:44.863Z,2.87
2022-12-27T15:59:48.897Z,2.50
2022-12-27T16:02:37.175Z,2.23
2022-12-27T16:05:43.028Z,2.40
2022-12-27T16:08:36.728Z,3.10
2022-12-27T16:11:08.096Z,2.93
2022-12-27T16:13:43.395Z,3.77
2022-12-27T16:16:40.424Z,3.50
2022-12-27T16:19:23.055Z,3.20
2022-12-27T16:21:52.894Z,2.70
2022-12-27T16:24:25.063Z,3.60
2022-12-27T16:27:00.506Z,2.90
2022-12-27T16:29:32.785Z,4.00
2022-12-27T16:32:20.931Z,3.70
2022-12-27T16:34:55.059Z,3.73
2022-12-27T16:37:27.689Z,3.80
2022-12-27T16:40:25.020Z,3.70
2022-12-27T16:43:33.499Z,4.10
2022-12-27T16:46:20.683Z,4.17
2022-12-27T16:49:23.622Z,3.67
2022-12-27T16:52:17.490Z,3.73
2022-12-27T16:54:54.862Z,4.23
2022-12-27T16:57:34.489Z,3.17
2022-12-27T17:00:05.493Z,3.20
2022-12-27T17:02:42.253Z,2.77
2022-12-27T17:05:36.547Z,2.63
2022-12-27T17:08:15.824Z,2.80
2022-12-27T17:11:25.645Z,3.07
2022-12-27T17:13:57.439Z,3.07
2022-12-27T17:16:28.335Z,3.40
2022-12-27T17:19:00.523Z,2.90
2022-12-27T17:21:31.612Z,3.47
2022-12-27T17:24:06.926Z,4.30
2022-12-27T17:26:48.650Z,3.17
2022-12-27T17:29:53.346Z,3.60
2022-12-27T17:32:35.477Z,3.27
2022-12-27T17:35:12.407Z,4.13
2022-12-27T17:37:47.039Z,3.07
2022-12-27T17:40:32.872Z,3.40
2022-12-27T17:43:32.911Z,3.50
2022-12-27T17:46:20.602Z,3.23
2022-12-27T17:48:48.714Z,3.63
2022-12-27T17:51:21.791Z,3.17
2022-12-27T17:54:08.404Z,3.50
2022-12-27T17:57:00.196Z,2.87
2022-12-27T17:59:29.800Z,2.80
2022-12-27T18:02:06.015Z,2.70
2022-12-27T18:04:37.839Z,3.33
2022-12-27T18:07:09.323Z,3.00
2022-12-27T18:09:42.292Z,3.50
2022-12-27T18:12:16.625Z,2.93
2022-12-27T18:14:45.553Z,2.87
2022-12-27T18:17:29.034Z,3.23
2022-12-27T18:19:57.377Z,3.70
2022-12-27T18:22:25.945Z,3.40
2022-12-27T18:24:54.127Z,3.80
2022-12-27T18:27:26.501Z,3.97
2022-12-27T18:29:54.850Z,3.60
2022-12-27T18:32:25.723Z,3.20
2022-12-27T18:34:58.473Z,2.60
2022-12-27T18:37:27.207Z,3.07
2022-12-27T18:39:58.399Z,3.00
2022-12-27T18:42:32.490Z,3.37
2022-12-27T18:45:03.784Z,3.30
2022-12-27T18:47:38.847Z,3.13
2022-12-27T18:50:14.501Z,4.10
2022-12-27T18:52:43.479Z,3.60
2022-12-27T18:55:18.068Z,3.80
2022-12-27T18:57:49.032Z,5.03
2022-12-27T19:00:24.368Z,4.60
2022-12-27T19:02:54.279Z,4.27
2022-12-27T19:05:27.990Z,4.90
2022-12-27T19:08:00.985Z,3.93
2022-12-27T19:10:31.117Z,4.10
2022-12-27T19:13:01.447Z,4.87
2022-12-27T19:15:37.911Z,4.77
2022-12-27T19:18:18.179Z,4.73
2022-12-27T19:20:53.296Z,3.90
2022-12-27T19:23:34.039Z,4.37
2022-12-27T19:26:05.839Z,5.70
2022-12-27T19:28:37.138Z,4.70
2022-12-27T19:31:19.479Z,4.20
2022-12-27T19:33:52.084Z,4.80
2022-12-27T19:36:25.966Z,4.83
2022-12-27T19:38:54.844Z,5.57
2022-12-27T19:41:23.212Z,4.63
2022-12-27T19:43:52.523Z,6.17
2022-12-27T19:46:28.547Z,6.00
2022-12-27T19:51:46.913Z,4.50
2022-12-27T19:54:18.095Z,3.90
2022-12-27T19:56:46.367Z,8.10
2022-12-27T19:59:18.673Z,5.43
2022-12-27T20:01:47.160Z,5.57
2022-12-27T20:04:16.090Z,5.40
2022-12-27T20:06:45.355Z,5.80
2022-12-27T20:09:16.367Z,5.03
2022-12-27T20:11:44.506Z,6.73
2022-12-27T20:14:13.192Z,7.13
2022-12-27T20:16:42.420Z,6.20
2022-12-27T20:19:11.273Z,7.57
2022-12-27T20:21:40.386Z,7.30
2022-12-27T20:24:11.039Z,6.50
2022-12-27T20:26:39.824Z,6.50
2022-12-27T20:29:07.670Z,6.13
2022-12-27T20:31:42.408Z,7.37
2022-12-27T20:34:14.009Z,5.13
2022-12-27T20:36:42.845Z,7.07
2022-12-27T20:39:10.705Z,7.00
2022-12-27T20:41:39.180Z,5.90
2022-12-27T20:44:07.612Z,8.27
2022-12-27T20:46:36.008Z,6.70
2022-12-27T20:49:04.022Z,7.43
2022-12-27T20:51:33.980Z,7.40
2022-12-27T20:54:03.750Z,7.20
2022-12-27T20:56:32.657Z,8.23
2022-12-27T20:59:01.585Z,9.20
2022-12-27T21:01:30.072Z,6.83
2022-12-27T21:03:58.415Z,7.50
2022-12-27T21:06:28.638Z,8.20
2022-12-27T21:08:59.441Z,7.50
2022-12-27T21:11:30.724Z,7.77
2022-12-27T21:13:58.617Z,6.90
2022-12-27T21:16:28.997Z,7.57
2022-12-27T21:18:58.006Z,7.47
2022-12-27T21:21:28.979Z,8.17
2022-12-27T21:23:58.957Z,8.17
2022-12-27T21:26:29.140Z,8.73
2022-12-27T21:28:57.885Z,8.50
2022-12-27T21:31:26.986Z,8.50
2022-12-27T21:33:55.118Z,9.00
2022-12-27T21:36:25.889Z,8.47
2022-12-27T21:38:55.066Z,8.63
2022-12-27T21:41:26.012Z,9.10
2022-12-27T21:43:54.050Z,7.97
2022-12-27T21:46:24.450Z,6.20
2022-12-27T21:48:55.766Z,6.23
2022-12-27T21:51:24.267Z,7.30
2022-12-27T21:53:52.649Z,8.13
2022-12-27T21:56:21.139Z,8.53
2022-12-27T21:58:51.239Z,11.70
2022-12-27T22:01:21.158Z,10.83
2022-12-27T22:03:50.838Z,11.23
2022-12-27T22:06:21.467Z,9.40
2022-12-27T22:08:50.681Z,9.63
2022-12-27T22:11:20.623Z,8.87
2022-12-27T22:13:50.197Z,8.90
2022-12-27T22:16:20.594Z,8.20
2022-12-27T22:18:49.415Z,7.40
2022-12-27T22:21:20.349Z,6.83
2022-12-27T22:23:51.224Z,7.20
2022-12-27T22:26:21.468Z,8.30
2022-12-27T22:28:51.084Z,7.67
2022-12-27T22:31:21.638Z,6.67
2022-12-27T22:33:50.413Z,6.90
2022-12-27T22:36:20.033Z,5.90
2022-12-27T22:38:49.829Z,6.50
2022-12-27T22:41:20.527Z,6.33
2022-12-27T22:43:52.983Z,6.17
2022-12-27T22:46:22.194Z,6.63
2022-12-27T22:48:51.677Z,5.83
2022-12-27T22:51:21.976Z,6.80
2022-12-27T22:53:50.037Z,6.07
2022-12-27T22:56:20.475Z,5.53
2022-12-27T22:58:48.762Z,4.70
2022-12-27T23:01:21.188Z,5.37
2022-12-27T23:03:49.953Z,6.23
2022-12-27T23:06:18.541Z,7.50
2022-12-27T23:08:46.946Z,6.67
2022-12-27T23:11:17.279Z,8.20
2022-12-27T23:13:45.333Z,6.57
2022-12-27T23:16:13.898Z,6.20
2022-12-27T23:18:43.126Z,5.80
2022-12-27T23:21:20.295Z,4.63
2022-12-27T23:23:51.793Z,4.70
2022-12-27T23:26:22.528Z,4.63
2022-12-27T23:28:53.465Z,5.30
2022-12-27T23:31:23.364Z,5.73
2022-12-27T23:33:53.265Z,4.77
2022-12-27T23:36:22.002Z,4.50
2022-12-27T23:38:51.815Z,4.60
2022-12-27T23:41:22.492Z,4.03
2022-12-27T23:43:53.353Z,3.63
2022-12-27T23:46:24.964Z,3.67
2022-12-27T23:48:54.736Z,4.20
2022-12-27T23:51:23.704Z,4.13
2022-12-27T23:53:51.910Z,4.10
2022-12-27T23:56:21.854Z,4.03
2022-12-27T23:58:50.701Z,4.10
